createdAt,value
2019-01-28T00:01:13.639Z,6.23
2019-01-28T00:03:41.733Z,3.40
2019-01-28T00:06:09.854Z,5.73
2019-01-28T00:08:37.762Z,3.00
2019-01-28T00:11:05.739Z,4.93
2019-01-28T00:13:33.678Z,2.37
2019-01-28T00:16:01.594Z,5.50
2019-01-28T00:18:29.546Z,3.40
2019-01-28T00:20:57.474Z,3.87
2019-01-28T00:23:25.613Z,5.40
2019-01-28T00:25:53.503Z,2.50
2019-01-28T00:28:21.408Z,1.93
2019-01-28T00:30:49.494Z,2.80
2019-01-28T00:33:18.578Z,3.07
2019-01-28T00:35:46.519Z,3.20
2019-01-28T00:38:14.616Z,2.77
2019-01-28T00:40:42.607Z,1.83
2019-01-28T00:43:10.533Z,2.43
2019-01-28T00:45:38.476Z,2.77
2019-01-28T00:48:06.511Z,3.20
2019-01-28T00:50:34.443Z,3.60
2019-01-28T00:53:02.557Z,3.53
2019-01-28T00:55:30.938Z,1.87
2019-01-28T00:57:58.986Z,4.27
2019-01-28T01:00:26.912Z,2.33
2019-01-28T01:02:55.635Z,2.00
2019-01-28T01:05:23.620Z,1.63
2019-01-28T01:07:51.744Z,2.60
2019-01-28T01:10:20.111Z,1.90
2019-01-28T01:12:48.136Z,2.20
2019-01-28T01:15:16.318Z,2.57
2019-01-28T01:17:44.430Z,2.13
2019-01-28T01:20:13.376Z,3.40
2019-01-28T01:22:41.319Z,2.10
2019-01-28T01:25:09.801Z,2.07
2019-01-28T01:27:37.782Z,4.47
2019-01-28T01:30:06.697Z,1.53
2019-01-28T01:32:34.805Z,2.30
2019-01-28T01:35:02.710Z,2.73
2019-01-28T01:37:30.743Z,1.60
2019-01-28T01:39:58.696Z,2.27
2019-01-28T01:42:26.600Z,2.00
2019-01-28T01:44:54.488Z,3.00
2019-01-28T01:47:22.973Z,2.17
2019-01-28T01:49:50.928Z,4.40
2019-01-28T01:52:18.836Z,1.90
2019-01-28T01:54:46.989Z,3.83
2019-01-28T01:57:17.723Z,1.23
2019-01-28T01:59:45.740Z,2.20
2019-01-28T02:02:13.864Z,2.10
2019-01-28T02:04:42.092Z,2.23
2019-01-28T02:07:10.052Z,4.73
2019-01-28T02:09:37.947Z,1.90
2019-01-28T02:12:05.932Z,1.23
2019-01-28T02:14:33.823Z,0.90
2019-01-28T02:17:01.758Z,1.10
2019-01-28T02:19:29.746Z,1.97
2019-01-28T02:21:57.820Z,1.90
2019-01-28T02:24:26.135Z,1.13
2019-01-28T02:26:54.123Z,1.20
2019-01-28T02:29:22.111Z,2.27
2019-01-28T02:31:50.171Z,1.20
2019-01-28T02:34:21.206Z,3.40
2019-01-28T02:36:49.158Z,1.70
2019-01-28T02:39:19.788Z,0.93
2019-01-28T02:41:47.840Z,2.53
2019-01-28T02:44:15.857Z,2.00
2019-01-28T02:46:43.838Z,2.00
2019-01-28T02:49:11.841Z,1.30
2019-01-28T02:51:39.847Z,3.40
2019-01-28T02:54:07.790Z,1.23
2019-01-28T02:56:36.578Z,1.40
2019-01-28T02:59:04.590Z,2.20
2019-01-28T03:01:32.635Z,1.97
2019-01-28T03:04:00.570Z,1.70
2019-01-28T03:06:28.544Z,3.30
2019-01-28T03:08:56.610Z,2.97
2019-01-28T03:11:24.600Z,1.40
2019-01-28T03:13:52.523Z,1.40
2019-01-28T03:16:21.661Z,2.90
2019-01-28T03:18:49.596Z,2.50
2019-01-28T03:21:17.602Z,3.00
2019-01-28T03:23:45.716Z,1.57
2019-01-28T03:26:13.638Z,6.17
2019-01-28T03:28:41.590Z,2.50
2019-01-28T03:31:09.764Z,1.47
2019-01-28T03:33:37.943Z,1.87
2019-01-28T03:36:06.010Z,1.60
2019-01-28T03:38:34.083Z,2.23
2019-01-28T03:41:02.303Z,2.33
2019-01-28T03:43:30.384Z,2.20
2019-01-28T03:45:58.377Z,1.90
2019-01-28T03:48:26.515Z,1.73
2019-01-28T03:50:54.444Z,2.50
2019-01-28T03:53:23.673Z,1.30
2019-01-28T03:55:51.709Z,1.60
2019-01-28T03:58:19.736Z,3.20
2019-01-28T04:00:47.669Z,1.23
2019-01-28T04:03:15.868Z,2.43
2019-01-28T04:05:43.799Z,2.13
2019-01-28T04:08:11.803Z,1.43
2019-01-28T04:10:39.954Z,1.50
2019-01-28T04:13:07.948Z,1.33
2019-01-28T04:15:36.951Z,4.40
2019-01-28T04:18:04.893Z,1.13
2019-01-28T04:20:33.283Z,2.30
2019-01-28T04:23:01.299Z,1.90
2019-01-28T04:25:29.290Z,2.90
2019-01-28T04:27:57.235Z,1.50
2019-01-28T04:30:28.138Z,1.37
2019-01-28T04:32:56.057Z,1.37
2019-01-28T04:35:24.052Z,1.40
2019-01-28T04:37:52.303Z,1.73
2019-01-28T04:40:20.396Z,1.47
2019-01-28T04:42:48.350Z,1.57
2019-01-28T04:45:19.493Z,1.60
2019-01-28T04:47:47.694Z,1.73
2019-01-28T04:50:16.560Z,2.23
2019-01-28T04:52:44.549Z,2.00
2019-01-28T04:55:12.848Z,1.23
2019-01-28T04:57:40.745Z,4.20
2019-01-28T05:00:10.483Z,1.83
2019-01-28T05:02:38.420Z,1.67
2019-01-28T05:05:06.640Z,4.93
2019-01-28T05:07:34.698Z,1.50
2019-01-28T05:10:02.775Z,1.60
2019-01-28T05:12:31.240Z,1.37
2019-01-28T05:14:59.207Z,2.33
2019-01-28T05:17:27.255Z,1.60
2019-01-28T05:19:55.247Z,1.50
2019-01-28T05:22:23.248Z,1.50
2019-01-28T05:24:51.297Z,2.23
2019-01-28T05:27:19.353Z,1.00
2019-01-28T05:29:47.426Z,2.87
2019-01-28T05:32:17.108Z,1.47
2019-01-28T05:34:45.006Z,1.63
2019-01-28T05:37:12.957Z,1.43
2019-01-28T05:39:41.007Z,1.50
2019-01-28T05:42:08.968Z,1.33
2019-01-28T05:44:36.888Z,1.60
2019-01-28T05:47:04.814Z,0.90
2019-01-28T05:49:33.039Z,1.40
2019-01-28T05:52:01.050Z,2.00
2019-01-28T05:54:28.998Z,1.23
2019-01-28T05:56:57.178Z,1.23
2019-01-28T05:59:25.134Z,2.20
2019-01-28T06:01:54.281Z,1.30
2019-01-28T06:04:22.622Z,2.80
2019-01-28T06:06:50.530Z,1.27
2019-01-28T06:09:18.458Z,3.37
2019-01-28T06:11:46.528Z,2.97
2019-01-28T06:14:14.623Z,1.43
2019-01-28T06:16:43.014Z,1.60
2019-01-28T06:19:10.969Z,1.40
2019-01-28T06:21:38.954Z,1.53
2019-01-28T06:24:07.151Z,1.77
2019-01-28T06:26:35.337Z,1.80
2019-01-28T06:29:03.434Z,2.23
2019-01-28T06:31:31.493Z,1.57
2019-01-28T06:33:59.601Z,1.57
2019-01-28T06:36:27.688Z,1.90
2019-01-28T06:38:55.643Z,1.20
2019-01-28T06:41:23.632Z,2.33
2019-01-28T06:43:51.566Z,1.40
2019-01-28T06:46:19.560Z,2.00
2019-01-28T06:48:47.494Z,4.10
2019-01-28T06:51:15.403Z,2.00
2019-01-28T06:53:43.340Z,2.33
2019-01-28T06:56:11.312Z,3.77
2019-01-28T06:58:39.728Z,3.93
2019-01-28T07:01:07.807Z,1.60
2019-01-28T07:03:35.800Z,2.70
2019-01-28T07:06:03.800Z,5.00
2019-01-28T07:08:31.824Z,2.57
2019-01-28T07:10:59.734Z,3.40
2019-01-28T07:13:27.694Z,2.10
2019-01-28T07:15:55.659Z,2.90
2019-01-28T07:18:23.597Z,4.63
2019-01-28T07:20:51.580Z,2.30
2019-01-28T07:23:19.471Z,1.50
2019-01-28T07:25:47.431Z,2.13
2019-01-28T07:28:15.554Z,1.70
2019-01-28T07:30:43.513Z,2.80
2019-01-28T07:33:11.427Z,2.37
2019-01-28T07:35:39.399Z,3.17
2019-01-28T07:38:07.340Z,1.87
2019-01-28T07:40:35.419Z,3.90
2019-01-28T07:43:03.458Z,2.37
2019-01-28T07:45:32.701Z,3.40
2019-01-28T07:48:02.996Z,4.40
2019-01-28T07:50:30.874Z,2.53
2019-01-28T07:53:00.225Z,4.03
2019-01-28T07:55:28.411Z,2.40
2019-01-28T07:57:56.913Z,3.17
2019-01-28T08:00:26.617Z,5.43
2019-01-28T08:02:54.955Z,3.90
2019-01-28T08:05:23.023Z,3.47
2019-01-28T08:07:51.324Z,1.70
2019-01-28T08:10:19.420Z,2.63
2019-01-28T08:12:48.457Z,1.80
2019-01-28T08:15:17.361Z,3.53
2019-01-28T08:17:45.584Z,4.83
2019-01-28T08:20:14.518Z,2.90
2019-01-28T08:22:42.663Z,2.40
2019-01-28T08:25:11.469Z,2.90
2019-01-28T08:27:40.002Z,4.57
2019-01-28T08:30:10.148Z,4.57
2019-01-28T08:32:39.378Z,7.80
2019-01-28T08:35:08.345Z,3.10
2019-01-28T08:37:36.303Z,3.80
2019-01-28T08:40:05.152Z,2.60
2019-01-28T08:42:33.599Z,4.63
2019-01-28T08:45:01.812Z,3.67
2019-01-28T08:47:30.420Z,6.13
2019-01-28T08:49:59.331Z,3.43
2019-01-28T08:52:29.705Z,3.00
2019-01-28T08:54:58.784Z,3.70
2019-01-28T08:57:26.698Z,6.57
2019-01-28T08:59:54.844Z,5.50
2019-01-28T09:02:22.921Z,3.87
2019-01-28T09:04:50.854Z,2.73
2019-01-28T09:07:18.738Z,2.00
2019-01-28T09:09:46.743Z,2.00
2019-01-28T09:12:17.075Z,5.73
2019-01-28T09:14:45.047Z,7.97
2019-01-28T09:17:13.133Z,4.20
2019-01-28T09:19:41.190Z,4.07
2019-01-28T09:22:09.189Z,3.07
2019-01-28T09:24:37.345Z,1.83
2019-01-28T09:27:05.306Z,3.50
2019-01-28T09:29:33.719Z,1.93
2019-01-28T09:32:01.685Z,2.67
2019-01-28T09:34:29.667Z,1.93
2019-01-28T09:36:57.827Z,2.03
2019-01-28T09:39:26.752Z,2.90
2019-01-28T09:41:54.680Z,3.10
2019-01-28T09:44:22.864Z,2.00
2019-01-28T09:46:50.949Z,1.77
2019-01-28T09:49:19.089Z,3.70
2019-01-28T09:51:46.974Z,2.03
2019-01-28T09:54:15.039Z,2.37
2019-01-28T09:56:43.227Z,1.73
2019-01-28T09:59:11.409Z,3.90
2019-01-28T10:01:39.405Z,2.30
2019-01-28T10:04:07.530Z,3.00
2019-01-28T10:06:35.921Z,3.17
2019-01-28T10:09:10.136Z,3.00
2019-01-28T10:11:36.065Z,3.60
2019-01-28T10:14:04.093Z,2.87
2019-01-28T10:16:32.102Z,4.20
2019-01-28T10:19:00.056Z,3.40
2019-01-28T10:21:27.978Z,3.20
2019-01-28T10:23:56.198Z,2.17
2019-01-28T10:26:24.171Z,3.33
2019-01-28T10:28:52.758Z,2.60
2019-01-28T10:31:20.955Z,1.90
2019-01-28T10:33:49.088Z,2.47
2019-01-28T10:36:17.175Z,2.10
2019-01-28T10:38:45.238Z,4.43
2019-01-28T10:41:13.439Z,3.10
2019-01-28T10:43:41.645Z,2.23
2019-01-28T10:46:09.701Z,4.83
2019-01-28T10:48:37.850Z,4.20
2019-01-28T10:51:05.844Z,3.70
2019-01-28T10:53:34.074Z,3.63
2019-01-28T10:56:02.061Z,2.23
2019-01-28T10:58:30.127Z,3.60
2019-01-28T11:00:58.296Z,4.63
2019-01-28T11:03:26.772Z,2.60
2019-01-28T11:05:54.937Z,5.13
2019-01-28T11:08:23.071Z,4.57
2019-01-28T11:10:51.325Z,5.00
2019-01-28T11:13:19.522Z,3.53
2019-01-28T11:15:47.653Z,3.00
2019-01-28T11:18:34.901Z,4.83
2019-01-28T11:21:03.526Z,6.20
2019-01-28T11:23:32.274Z,3.10
2019-01-28T11:26:00.914Z,2.43
2019-01-28T11:28:29.079Z,5.53
2019-01-28T11:31:03.268Z,7.90
2019-01-28T11:33:31.689Z,6.30
2019-01-28T11:36:04.986Z,3.80
2019-01-28T11:38:29.952Z,4.37
2019-01-28T11:40:58.363Z,6.00
2019-01-28T11:43:26.613Z,2.80
2019-01-28T11:45:59.023Z,2.23
2019-01-28T11:48:27.248Z,6.03
2019-01-28T11:50:56.058Z,2.50
2019-01-28T11:53:24.570Z,2.60
2019-01-28T11:55:52.522Z,4.23
2019-01-28T11:58:20.611Z,3.87
2019-01-28T12:00:53.754Z,2.07
2019-01-28T12:03:21.927Z,2.17
2019-01-28T12:05:50.075Z,2.13
2019-01-28T12:08:18.172Z,4.20
2019-01-28T12:10:46.411Z,9.50
2019-01-28T12:13:15.450Z,3.40
2019-01-28T12:15:43.664Z,3.53
2019-01-28T12:18:11.607Z,2.60
2019-01-28T12:20:40.300Z,2.40
2019-01-28T12:23:08.698Z,3.57
2019-01-28T12:25:36.802Z,3.17
2019-01-28T12:28:05.343Z,3.07
2019-01-28T12:30:34.357Z,3.07
2019-01-28T12:33:02.431Z,3.23
2019-01-28T12:35:30.753Z,3.50
2019-01-28T12:37:59.229Z,2.10
2019-01-28T12:40:27.249Z,2.40
2019-01-28T12:42:55.518Z,2.60
2019-01-28T12:45:24.083Z,2.67
2019-01-28T12:47:52.026Z,2.40
2019-01-28T12:50:20.145Z,2.33
2019-01-28T12:52:48.278Z,4.40
2019-01-28T12:55:17.224Z,2.23
2019-01-28T12:57:45.242Z,4.13
2019-01-28T13:00:17.681Z,2.50
2019-01-28T13:02:46.314Z,3.40
2019-01-28T13:05:15.294Z,2.80
2019-01-28T13:07:43.359Z,2.50
2019-01-28T13:10:13.089Z,3.20
2019-01-28T13:12:41.253Z,2.90
2019-01-28T13:15:11.388Z,2.20
2019-01-28T13:17:42.684Z,2.03
2019-01-28T13:20:10.730Z,2.57
2019-01-28T13:23:01.441Z,2.13
2019-01-28T13:25:29.810Z,2.00
2019-01-28T13:27:58.631Z,2.23
2019-01-28T13:30:27.992Z,2.10
2019-01-28T13:32:57.271Z,2.13
2019-01-28T13:35:25.342Z,1.70
2019-01-28T13:37:53.605Z,2.20
2019-01-28T13:40:21.638Z,2.33
2019-01-28T13:42:49.691Z,2.83
2019-01-28T13:45:18.273Z,2.27
2019-01-28T13:47:46.640Z,2.30
2019-01-28T13:50:16.463Z,2.87
2019-01-28T13:52:44.514Z,2.70
2019-01-28T13:55:12.696Z,2.80
2019-01-28T13:57:40.699Z,2.50
2019-01-28T14:00:12.013Z,2.47
2019-01-28T14:02:40.037Z,2.37
2019-01-28T14:05:08.470Z,2.70
2019-01-28T14:07:36.590Z,2.23
2019-01-28T14:10:05.293Z,3.87
2019-01-28T14:12:33.435Z,2.57
2019-01-28T14:15:01.647Z,3.13
2019-01-28T14:17:29.999Z,2.27
2019-01-28T14:19:57.984Z,2.90
2019-01-28T14:22:25.935Z,2.43
2019-01-28T14:24:53.807Z,2.03
2019-01-28T14:27:25.382Z,2.97
2019-01-28T14:29:54.355Z,2.70
2019-01-28T14:32:22.405Z,2.23
2019-01-28T14:34:50.302Z,2.10
2019-01-28T14:37:18.199Z,2.10
2019-01-28T14:39:46.239Z,2.40
2019-01-28T14:42:14.146Z,3.13
2019-01-28T14:44:42.081Z,2.33
2019-01-28T14:47:10.301Z,3.07
2019-01-28T14:49:38.350Z,2.57
2019-01-28T14:52:06.309Z,1.90
2019-01-28T14:54:34.248Z,2.70
2019-01-28T14:57:02.187Z,2.70
2019-01-28T14:59:30.068Z,2.33
2019-01-28T15:01:58.040Z,2.60
2019-01-28T15:04:25.977Z,2.40
2019-01-28T15:06:53.930Z,2.80
2019-01-28T15:09:21.896Z,2.57
2019-01-28T15:11:49.864Z,2.20
2019-01-28T15:14:17.775Z,3.20
2019-01-28T15:16:45.694Z,3.47
2019-01-28T15:19:13.625Z,4.90
2019-01-28T15:21:41.510Z,2.30
2019-01-28T15:24:09.407Z,3.07
2019-01-28T15:26:37.742Z,2.60
2019-01-28T15:29:05.880Z,2.63
2019-01-28T15:31:33.879Z,2.47
2019-01-28T15:34:01.797Z,2.30
2019-01-28T15:36:29.867Z,2.67
2019-01-28T15:38:58.123Z,3.30
2019-01-28T15:41:26.003Z,3.90
2019-01-28T15:43:53.886Z,2.93
2019-01-28T15:46:21.917Z,2.67
2019-01-28T15:48:49.915Z,3.07
2019-01-28T15:51:17.821Z,2.87
2019-01-28T15:53:45.765Z,2.70
2019-01-28T15:56:13.695Z,4.53
2019-01-28T15:58:41.584Z,3.60
2019-01-28T16:01:09.758Z,2.87
2019-01-28T16:03:37.657Z,3.20
2019-01-28T16:06:05.571Z,3.53
2019-01-28T16:08:33.572Z,3.37
2019-01-28T16:11:01.497Z,3.33
2019-01-28T16:13:29.414Z,3.27
2019-01-28T16:15:57.480Z,4.00
2019-01-28T16:18:25.616Z,3.90
2019-01-28T16:20:53.581Z,4.30
2019-01-28T16:23:21.537Z,4.57
2019-01-28T16:25:49.446Z,4.67
2019-01-28T16:28:17.361Z,4.70
2019-01-28T16:30:45.468Z,3.73
2019-01-28T16:33:13.415Z,4.30
2019-01-28T16:35:41.526Z,3.50
2019-01-28T16:38:09.553Z,7.37
2019-01-28T16:40:37.522Z,4.93
2019-01-28T16:43:06.371Z,4.37
2019-01-28T16:45:34.366Z,6.37
2019-01-28T16:48:02.709Z,4.23
2019-01-28T16:50:30.940Z,4.97
2019-01-28T16:52:58.848Z,21.17
2019-01-28T16:55:26.957Z,3.93
2019-01-28T16:57:55.391Z,5.53
2019-01-28T17:00:24.775Z,4.33
2019-01-28T17:02:52.701Z,4.50
2019-01-28T17:05:20.736Z,5.07
2019-01-28T17:07:48.646Z,5.10
2019-01-28T17:10:16.584Z,4.33
2019-01-28T17:12:44.607Z,8.43
2019-01-28T17:15:14.167Z,5.03
2019-01-28T17:17:42.137Z,4.80
2019-01-28T17:20:16.273Z,7.43
2019-01-28T17:22:44.191Z,6.40
2019-01-28T17:25:13.575Z,6.03
2019-01-28T17:27:41.543Z,6.90
2019-01-28T17:30:18.056Z,6.60
2019-01-28T17:32:46.078Z,7.57
2019-01-28T17:35:14.175Z,5.33
2019-01-28T17:37:42.117Z,5.83
2019-01-28T17:40:11.008Z,6.23
2019-01-28T17:42:38.983Z,6.43
2019-01-28T17:45:08.212Z,9.50
2019-01-28T17:47:36.149Z,5.90
2019-01-28T17:50:04.962Z,4.97
2019-01-28T17:52:32.999Z,6.60
2019-01-28T17:55:02.635Z,8.87
2019-01-28T17:57:32.494Z,5.43
2019-01-28T18:00:00.412Z,11.00
2019-01-28T18:02:28.357Z,10.63
2019-01-28T18:04:56.200Z,9.60
2019-01-28T18:07:24.083Z,9.60
2019-01-28T18:09:51.975Z,9.07
2019-01-28T18:12:20.065Z,7.00
2019-01-28T18:14:48.204Z,9.40
2019-01-28T18:17:16.097Z,12.37
2019-01-28T18:19:44.162Z,6.80
2019-01-28T18:22:12.080Z,7.67
2019-01-28T18:24:40.084Z,7.87
2019-01-28T18:27:08.104Z,9.20
2019-01-28T18:29:36.022Z,6.60
2019-01-28T18:32:04.103Z,6.13
2019-01-28T18:34:32.072Z,8.17
2019-01-28T18:37:00.144Z,10.53
2019-01-28T18:39:31.143Z,8.60
2019-01-28T18:41:59.079Z,7.70
2019-01-28T18:44:27.404Z,7.10
2019-01-28T18:46:55.427Z,7.10
2019-01-28T18:49:23.547Z,8.30
2019-01-28T18:51:51.519Z,6.97
2019-01-28T18:54:26.961Z,9.70
2019-01-28T18:56:54.970Z,9.40
2019-01-28T18:59:22.945Z,6.27
2019-01-28T19:01:51.525Z,8.97
2019-01-28T19:04:19.740Z,10.97
2019-01-28T19:07:13.087Z,9.40
2019-01-28T19:09:49.847Z,10.60
2019-01-28T19:12:24.339Z,7.93
2019-01-28T19:15:14.483Z,9.83
2019-01-28T19:18:16.779Z,7.90
2019-01-28T19:21:07.778Z,9.43
2019-01-28T19:23:31.542Z,7.63
2019-01-28T19:26:00.099Z,7.20
2019-01-28T19:28:28.602Z,8.20
2019-01-28T19:30:56.799Z,7.40
2019-01-28T19:33:25.016Z,7.27
2019-01-28T19:35:53.248Z,8.77
2019-01-28T19:38:22.486Z,11.20
2019-01-28T19:40:50.857Z,8.00
2019-01-28T19:43:19.533Z,7.20
2019-01-28T19:45:48.042Z,9.03
2019-01-28T19:48:16.616Z,7.97
2019-01-28T19:50:44.840Z,11.50
2019-01-28T19:53:13.571Z,8.67
2019-01-28T19:55:45.205Z,9.10
2019-01-28T19:58:14.050Z,10.20
2019-01-28T20:00:45.471Z,8.93
2019-01-28T20:03:14.836Z,8.33
2019-01-28T20:05:43.277Z,10.13
2019-01-28T20:08:11.870Z,8.03
2019-01-28T20:10:40.443Z,10.30
2019-01-28T20:13:08.951Z,10.37
2019-01-28T20:15:37.143Z,9.33
2019-01-28T20:18:05.441Z,11.53
2019-01-28T20:20:33.773Z,8.30
2019-01-28T20:23:02.000Z,7.60
2019-01-28T20:25:30.187Z,8.23
2019-01-28T20:27:58.532Z,10.70
2019-01-28T20:30:27.109Z,10.13
2019-01-28T20:32:55.463Z,8.90
2019-01-28T20:35:23.810Z,11.90
2019-01-28T20:37:54.325Z,7.43
2019-01-28T20:40:22.519Z,8.63
2019-01-28T20:42:50.874Z,11.20
2019-01-28T20:45:20.019Z,10.20
2019-01-28T20:47:48.385Z,10.70
2019-01-28T20:50:18.193Z,7.80
2019-01-28T20:52:46.712Z,8.23
2019-01-28T20:55:14.977Z,12.57
2019-01-28T20:57:43.130Z,6.33
2019-01-28T21:00:13.391Z,9.60
2019-01-28T21:02:41.667Z,7.83
2019-01-28T21:05:10.577Z,9.20
2019-01-28T21:07:38.737Z,10.60
2019-01-28T21:10:08.188Z,11.23
2019-01-28T21:12:36.431Z,7.60
2019-01-28T21:15:05.602Z,7.73
2019-01-28T21:17:33.814Z,8.20
2019-01-28T21:20:02.031Z,8.07
2019-01-28T21:22:30.300Z,9.37
2019-01-28T21:24:58.650Z,10.17
2019-01-28T21:27:29.080Z,8.27
2019-01-28T21:29:57.510Z,8.23
2019-01-28T21:32:26.112Z,8.17
2019-01-28T21:34:55.891Z,7.90
2019-01-28T21:37:34.975Z,8.87
2019-01-28T21:40:06.665Z,7.80
2019-01-28T21:42:35.549Z,7.43
2019-01-28T21:45:05.645Z,8.50
2019-01-28T21:47:34.448Z,7.93
2019-01-28T21:50:02.606Z,10.20
2019-01-28T21:52:31.195Z,6.57
2019-01-28T21:54:59.542Z,7.00
2019-01-28T21:57:28.064Z,6.20
2019-01-28T21:59:56.536Z,6.87
2019-01-28T22:02:24.967Z,7.87
2019-01-28T22:04:53.163Z,7.50
2019-01-28T22:07:21.469Z,8.10
2019-01-28T22:09:49.638Z,6.70
2019-01-28T22:12:17.842Z,7.87
2019-01-28T22:14:46.134Z,7.00
2019-01-28T22:17:14.352Z,8.73
2019-01-28T22:19:42.519Z,10.83
2019-01-28T22:22:12.143Z,8.40
2019-01-28T22:24:40.316Z,9.37
2019-01-28T22:27:08.576Z,6.30
2019-01-28T22:29:37.022Z,10.00
2019-01-28T22:32:05.367Z,6.23
2019-01-28T22:34:33.484Z,9.80
2019-01-28T22:37:01.704Z,10.00
2019-01-28T22:39:29.867Z,7.90
2019-01-28T22:41:58.032Z,6.60
2019-01-28T22:44:26.258Z,6.83
2019-01-28T22:46:59.792Z,8.97
2019-01-28T22:49:27.991Z,6.80
2019-01-28T22:51:56.152Z,4.77
2019-01-28T22:54:24.334Z,6.20
2019-01-28T22:56:52.554Z,6.13
2019-01-28T22:59:21.246Z,6.13
2019-01-28T23:01:49.642Z,9.70
2019-01-28T23:04:17.819Z,8.30
2019-01-28T23:06:45.989Z,6.70
2019-01-28T23:09:14.649Z,5.17
2019-01-28T23:11:43.031Z,7.73
2019-01-28T23:14:11.601Z,6.00
2019-01-28T23:16:39.763Z,9.90
2019-01-28T23:19:08.162Z,8.33
2019-01-28T23:21:36.443Z,6.40
2019-01-28T23:24:04.975Z,5.80
2019-01-28T23:26:33.150Z,8.43
2019-01-28T23:29:01.456Z,6.50
2019-01-28T23:31:29.809Z,5.50
2019-01-28T23:33:58.035Z,5.57
2019-01-28T23:36:26.308Z,5.23
2019-01-28T23:38:54.465Z,7.23
2019-01-28T23:41:22.632Z,8.50
2019-01-28T23:43:50.932Z,5.73
2019-01-28T23:46:19.625Z,6.47
2019-01-28T23:48:47.834Z,5.70
2019-01-28T23:51:15.966Z,5.43
2019-01-28T23:53:44.395Z,5.30
2019-01-28T23:56:12.667Z,6.43
2019-01-28T23:58:40.794Z,6.70
